Time;durP1;ratioP1;P1;durP2;ratioP2;P2;SDS_P1;SDS_P2;PMS_P1;PMS_P2;Temp;Humidity;BMP_temperature;BMP_pressure;BME280_temperature;BME280_humidity;BME280_pressure;Samples;Min_cycle;Max_cycle;Signal;HPM_P1;HPM_P2
2023/08/12 00:01:56;;;;;;;8.00;7.90;;;20.90;99.90;;;;;;5095253;28;20469;-68
2023/08/12 00:04:24;;;;;;;8.30;8.20;;;20.90;99.90;;;;;;5106836;28;20463;-68
2023/08/12 00:06:53;;;;;;;8.40;8.30;;;20.80;99.90;;;;;;5092776;28;20450;-68
2023/08/12 00:09:19;;;;;;;7.90;7.80;;;20.80;99.90;;;;;;5102977;28;20520;-68
2023/08/12 00:11:47;;;;;;;7.90;7.80;;;20.80;99.90;;;;;;5096905;28;20570;-68
2023/08/12 00:14:14;;;;;;;7.60;7.50;;;20.70;99.90;;;;;;5097223;28;20565;-69
2023/08/12 00:16:43;;;;;;;7.77;7.67;;;20.80;99.90;;;;;;5101899;28;20496;-69
2023/08/12 00:19:10;;;;;;;8.10;8.00;;;20.70;99.90;;;;;;5101137;28;20819;-69
2023/08/12 00:21:38;;;;;;;7.83;7.73;;;20.70;99.90;;;;;;5088715;28;20469;-68
2023/08/12 00:24:07;;;;;;;8.00;7.90;;;20.70;99.90;;;;;;5104808;28;20972;-68
2023/08/12 00:26:34;;;;;;;8.27;8.17;;;20.70;99.90;;;;;;5094761;28;20454;-69
2023/08/12 00:29:02;;;;;;;8.30;8.20;;;20.70;99.90;;;;;;5102800;28;20494;-69
2023/08/12 00:31:29;;;;;;;8.20;8.10;;;20.70;99.90;;;;;;5099923;28;20457;-69
2023/08/12 00:33:57;;;;;;;8.70;8.60;;;20.70;99.90;;;;;;5092264;28;20466;-67
2023/08/12 00:36:24;;;;;;;7.90;7.80;;;20.80;99.90;;;;;;5096723;28;20461;-68
2023/08/12 00:38:51;;;;;;;8.30;8.20;;;20.70;99.90;;;;;;5105081;28;20465;-69
2023/08/12 00:41:18;;;;;;;8.17;8.07;;;20.80;99.90;;;;;;5096616;28;20980;-68
2023/08/12 00:43:45;;;;;;;7.80;7.70;;;20.80;99.90;;;;;;5096267;28;20863;-68
2023/08/12 00:46:14;;;;;;;7.63;7.53;;;20.70;99.90;;;;;;5106879;28;20457;-68
2023/08/12 00:48:41;;;;;;;7.50;7.40;;;20.70;99.90;;;;;;5101048;28;20544;-68
2023/08/12 00:51:10;;;;;;;7.40;7.30;;;20.70;99.90;;;;;;5099387;28;20450;-69
2023/08/12 00:53:38;;;;;;;7.40;7.30;;;20.70;99.90;;;;;;5100311;28;20473;-68
2023/08/12 00:56:05;;;;;;;7.60;7.50;;;20.60;99.90;;;;;;5097813;28;20462;-68
2023/08/12 00:58:33;;;;;;;8.10;8.00;;;20.70;99.90;;;;;;5098084;28;20466;-69
2023/08/12 01:01:01;;;;;;;8.00;7.90;;;20.60;99.90;;;;;;5099345;28;20462;-68
2023/08/12 01:03:29;;;;;;;8.00;7.90;;;20.70;99.90;;;;;;5095309;28;20454;-67
2023/08/12 01:05:58;;;;;;;8.20;8.10;;;20.70;99.90;;;;;;5102783;28;20971;-68
2023/08/12 01:08:31;;;;;;;8.33;8.23;;;20.80;99.90;;;;;;5095353;27;20478;-68
2023/08/12 01:11:07;;;;;;;7.50;7.40;;;20.80;99.90;;;;;;5105438;28;20852;-68
2023/08/12 01:13:44;;;;;;;8.20;8.10;;;20.80;99.90;;;;;;5099109;28;20519;-68
2023/08/12 01:16:16;;;;;;;8.43;8.33;;;20.80;99.90;;;;;;5101493;28;20473;-68
2023/08/12 01:18:43;;;;;;;10.20;10.00;;;20.90;99.90;;;;;;5101541;28;20963;-68
2023/08/12 01:21:16;;;;;;;9.80;9.60;;;20.80;99.90;;;;;;5094804;28;20458;-68
2023/08/12 01:23:45;;;;;;;8.97;8.87;;;20.80;99.90;;;;;;5090361;28;20551;-67
2023/08/12 01:26:12;;;;;;;8.57;8.47;;;20.80;99.90;;;;;;5092818;28;20465;-68
2023/08/12 01:28:38;;;;;;;9.13;9.00;;;20.70;99.90;;;;;;5099780;28;20784;-67
2023/08/12 01:31:12;;;;;;;9.03;8.93;;;20.80;99.90;;;;;;5102588;28;20487;-67
2023/08/12 01:33:47;;;;;;;8.67;8.57;;;20.80;99.90;;;;;;5104122;28;20462;-68
2023/08/12 01:36:17;;;;;;;8.47;8.37;;;20.80;99.90;;;;;;5098300;28;20968;-67
2023/08/12 01:38:47;;;;;;;8.30;8.20;;;20.80;99.90;;;;;;5099161;28;20847;-67
2023/08/12 01:41:16;;;;;;;9.23;9.03;;;20.80;99.90;;;;;;5087189;28;21190;-67
2023/08/12 01:43:43;;;;;;;9.27;9.07;;;20.80;99.90;;;;;;5101238;28;20823;-66
2023/08/12 01:46:11;;;;;;;10.60;10.40;;;20.80;99.90;;;;;;5101218;28;20461;-68
2023/08/12 01:48:38;;;;;;;10.50;10.30;;;20.80;99.90;;;;;;5088843;28;20481;-67
2023/08/12 01:51:06;;;;;;;11.07;10.83;;;20.80;99.90;;;;;;5099627;28;20465;-67
2023/08/12 01:53:33;;;;;;;9.50;9.30;;;20.80;99.90;;;;;;5103367;28;20457;-68
2023/08/12 01:56:04;;;;;;;9.20;9.00;;;20.80;99.90;;;;;;5097866;28;20465;-67
2023/08/12 01:58:30;;;;;;;9.10;8.90;;;20.80;99.90;;;;;;5091632;28;20461;-67
2023/08/12 02:00:58;;;;;;;9.47;9.27;;;20.80;99.90;;;;;;5104122;28;20458;-67
2023/08/12 02:03:25;;;;;;;9.17;8.97;;;20.90;99.90;;;;;;5094434;28;20540;-66
2023/08/12 02:05:52;;;;;;;10.60;10.30;;;20.90;99.90;;;;;;5099610;28;20465;-67
2023/08/12 02:08:19;;;;;;;9.10;8.90;;;20.80;99.90;;;;;;5100123;28;20485;-68
2023/08/12 02:10:46;;;;;;;9.40;9.20;;;20.80;99.90;;;;;;5099747;28;20521;-68
2023/08/12 02:13:14;;;;;;;9.10;8.90;;;20.80;99.90;;;;;;5089617;28;20896;-67
2023/08/12 02:15:44;;;;;;;9.73;9.53;;;20.90;99.90;;;;;;5095768;28;20486;-67
2023/08/12 02:18:11;;;;;;;9.23;9.03;;;20.90;99.90;;;;;;5102595;28;20464;-68
2023/08/12 02:20:38;;;;;;;9.40;9.20;;;20.80;99.90;;;;;;5095871;28;20511;-68
2023/08/12 02:23:04;;;;;;;9.27;9.07;;;20.80;99.90;;;;;;5102994;28;20475;-68
2023/08/12 02:25:32;;;;;;;9.87;9.57;;;20.90;99.90;;;;;;5095579;28;20483;-67
2023/08/12 02:28:00;;;;;;;9.20;9.00;;;20.90;99.90;;;;;;5094590;28;20469;-68
2023/08/12 02:30:30;;;;;;;9.20;9.00;;;20.90;99.90;;;;;;5094048;28;20464;-67
2023/08/12 02:32:56;;;;;;;9.77;9.37;;;20.80;99.90;;;;;;5101198;28;20940;-68
2023/08/12 02:35:24;;;;;;;9.57;9.27;;;20.80;99.90;;;;;;5105696;28;20835;-68
2023/08/12 02:37:52;;;;;;;9.07;8.87;;;20.80;99.90;;;;;;5107269;28;20457;-69
2023/08/12 02:40:19;;;;;;;8.63;8.43;;;20.80;99.90;;;;;;5098449;28;20456;-65
2023/08/12 02:42:46;;;;;;;9.60;9.30;;;20.80;99.90;;;;;;5097252;28;20466;-68
2023/08/12 02:45:13;;;;;;;9.30;9.00;;;20.80;99.90;;;;;;5100580;28;20461;-69
2023/08/12 02:47:42;;;;;;;8.87;8.67;;;20.80;99.90;;;;;;5094558;28;20461;-69
2023/08/12 02:50:09;;;;;;;9.00;8.80;;;20.80;99.90;;;;;;5096671;28;20957;-69
2023/08/12 02:52:37;;;;;;;8.80;8.60;;;20.80;99.90;;;;;;5111665;27;20449;-68
2023/08/12 02:55:05;;;;;;;9.00;8.80;;;20.80;99.90;;;;;;5098286;28;20449;-68
2023/08/12 02:57:31;;;;;;;9.07;8.77;;;20.80;99.90;;;;;;5103452;28;20461;-68
2023/08/12 02:59:58;;;;;;;9.93;9.63;;;20.80;99.90;;;;;;5098523;28;20476;-68
2023/08/12 03:02:25;;;;;;;10.37;9.80;;;20.80;99.90;;;;;;5102079;28;20465;-65
2023/08/12 03:04:54;;;;;;;9.23;8.93;;;20.80;99.90;;;;;;5107414;28;20549;-65
2023/08/12 03:07:21;;;;;;;9.40;9.10;;;20.80;99.90;;;;;;5098887;28;20477;-66
2023/08/12 03:09:48;;;;;;;8.80;8.60;;;20.80;99.90;;;;;;5107415;28;20496;-66
2023/08/12 03:12:15;;;;;;;8.70;8.50;;;20.80;99.90;;;;;;5099333;28;20458;-65
2023/08/12 03:14:42;;;;;;;9.27;8.97;;;20.80;99.90;;;;;;5098231;27;20510;-69
2023/08/12 03:17:09;;;;;;;9.10;8.80;;;20.80;99.90;;;;;;5099010;28;20496;-67
2023/08/12 03:19:37;;;;;;;9.63;9.33;;;20.80;99.90;;;;;;5101451;28;20462;-68
2023/08/12 03:22:05;;;;;;;9.20;8.90;;;20.80;99.90;;;;;;5100545;27;20483;-68
2023/08/12 03:24:33;;;;;;;9.30;9.00;;;20.80;99.90;;;;;;5106584;28;20456;-69
2023/08/12 03:27:01;;;;;;;8.93;8.63;;;20.80;99.90;;;;;;5096211;28;20952;-68
2023/08/12 03:29:28;;;;;;;9.30;9.00;;;20.80;99.90;;;;;;5099915;28;20565;-67
2023/08/12 03:31:55;;;;;;;9.27;8.97;;;20.80;99.90;;;;;;5092140;28;20473;-66
2023/08/12 03:34:22;;;;;;;11.43;10.93;;;20.70;99.90;;;;;;5093743;28;20549;-67
2023/08/12 03:36:50;;;;;;;9.30;9.00;;;20.70;99.90;;;;;;5099890;28;20477;-67
2023/08/12 03:39:19;;;;;;;9.47;9.07;;;20.70;99.90;;;;;;5100210;28;20467;-67
2023/08/12 03:41:46;;;;;;;9.40;9.10;;;20.70;99.90;;;;;;5100063;28;20929;-67
2023/08/12 03:44:13;;;;;;;9.80;9.50;;;20.60;99.90;;;;;;5107155;28;20490;-67
2023/08/12 03:46:40;;;;;;;9.73;9.43;;;20.60;99.90;;;;;;5104712;28;20465;-68
2023/08/12 03:49:07;;;;;;;9.73;9.43;;;20.60;99.90;;;;;;5091560;28;20493;-67
2023/08/12 03:51:33;;;;;;;9.60;9.30;;;20.60;99.90;;;;;;5102428;28;20843;-68
2023/08/12 03:54:00;;;;;;;10.23;9.93;;;20.60;99.90;;;;;;5093476;28;20454;-68
2023/08/12 03:56:30;;;;;;;9.43;9.13;;;20.60;99.90;;;;;;5090796;28;20870;-68
2023/08/12 03:58:56;;;;;;;9.80;9.50;;;20.60;99.90;;;;;;5101969;28;20469;-68
2023/08/12 04:01:24;;;;;;;10.00;9.70;;;20.60;99.90;;;;;;5095081;28;20462;-66
2023/08/12 04:03:51;;;;;;;10.90;10.50;;;20.70;99.90;;;;;;5104683;28;20643;-68
2023/08/12 04:06:17;;;;;;;11.10;10.50;;;20.70;99.90;;;;;;5094231;28;20495;-67
2023/08/12 04:08:45;;;;;;;10.40;10.00;;;20.70;99.90;;;;;;5100992;28;20481;-67
2023/08/12 04:11:12;;;;;;;10.80;10.30;;;20.80;99.90;;;;;;5087891;28;20480;-68
2023/08/12 04:13:40;;;;;;;10.80;10.33;;;20.80;99.90;;;;;;5095837;28;20454;-67
2023/08/12 04:16:07;;;;;;;11.37;10.90;;;20.70;99.90;;;;;;5092746;28;20488;-68
2023/08/12 04:18:35;;;;;;;9.50;9.20;;;20.70;99.90;;;;;;5101192;28;20470;-67
2023/08/12 04:21:02;;;;;;;9.70;9.40;;;20.70;99.90;;;;;;5095240;28;20882;-68
2023/08/12 04:23:28;;;;;;;10.77;10.27;;;20.80;99.90;;;;;;5092928;28;20553;-66
2023/08/12 04:25:56;;;;;;;9.80;9.50;;;20.80;99.90;;;;;;5109661;28;20456;-67
2023/08/12 04:28:23;;;;;;;9.70;9.40;;;20.80;99.90;;;;;;5096819;28;20466;-68
2023/08/12 04:30:52;;;;;;;10.80;10.40;;;20.60;99.90;;;;;;5099858;28;20593;-68
2023/08/12 04:33:20;;;;;;;10.63;10.23;;;20.60;99.90;;;;;;5098676;28;20497;-67
2023/08/12 04:35:47;;;;;;;11.70;11.30;;;20.70;99.90;;;;;;5099365;28;20882;-67
2023/08/12 04:38:15;;;;;;;14.40;13.63;;;20.70;99.90;;;;;;5089599;28;20545;-66
2023/08/12 04:40:43;;;;;;;12.50;12.00;;;20.70;99.90;;;;;;5089181;28;20454;-67
2023/08/12 04:43:11;;;;;;;11.50;11.10;;;20.70;99.90;;;;;;5102147;28;20850;-67
2023/08/12 04:45:38;;;;;;;11.77;11.37;;;20.70;99.90;;;;;;5094239;28;20462;-67
2023/08/12 04:48:08;;;;;;;10.90;10.50;;;20.60;99.90;;;;;;5089631;28;20855;-67
2023/08/12 04:50:35;;;;;;;11.40;11.00;;;20.70;99.90;;;;;;5092385;28;20480;-67
2023/08/12 04:53:03;;;;;;;10.00;9.70;;;20.60;99.90;;;;;;5092479;28;20549;-68
2023/08/12 04:55:30;;;;;;;10.10;9.80;;;20.60;99.90;;;;;;5103951;28;20470;-67
2023/08/12 04:57:57;;;;;;;10.40;10.10;;;20.60;99.90;;;;;;5099084;28;20464;-67
2023/08/12 05:00:25;;;;;;;10.67;10.27;;;20.70;99.90;;;;;;5092664;28;20459;-66
2023/08/12 05:02:52;;;;;;;10.60;10.20;;;20.70;99.90;;;;;;5097643;28;20465;-68
2023/08/12 05:05:21;;;;;;;10.80;10.40;;;20.70;99.90;;;;;;5095768;28;20462;-68
2023/08/12 05:07:49;;;;;;;11.90;11.40;;;20.70;99.90;;;;;;5092514;28;20476;-68
2023/08/12 05:10:16;;;;;;;10.60;10.20;;;20.80;99.90;;;;;;5100573;28;20497;-67
2023/08/12 05:12:43;;;;;;;10.80;10.40;;;20.80;99.90;;;;;;5102464;27;20454;-67
2023/08/12 05:15:11;;;;;;;10.30;9.90;;;20.70;99.90;;;;;;5095629;28;20453;-66
2023/08/12 05:17:38;;;;;;;10.13;9.83;;;20.70;99.90;;;;;;5093334;28;20450;-67
2023/08/12 05:20:07;;;;;;;10.20;9.90;;;20.80;99.90;;;;;;5092947;28;20441;-67
2023/08/12 05:22:36;;;;;;;11.50;11.10;;;20.80;99.90;;;;;;5093484;28;20472;-67
2023/08/12 05:25:02;;;;;;;12.10;11.67;;;20.90;99.90;;;;;;5106749;28;20449;-66
2023/08/12 05:27:30;;;;;;;11.60;11.20;;;20.90;99.90;;;;;;5095449;28;20473;-66
2023/08/12 05:29:56;;;;;;;11.43;11.03;;;21.00;99.90;;;;;;5086581;28;20864;-68
2023/08/12 05:32:23;;;;;;;10.10;9.80;;;21.00;99.90;;;;;;5107019;28;20452;-67
2023/08/12 05:34:53;;;;;;;10.60;10.20;;;20.90;99.90;;;;;;5093044;28;20954;-67
2023/08/12 05:37:20;;;;;;;12.20;11.70;;;20.90;99.90;;;;;;5094187;28;20469;-67
2023/08/12 05:39:48;;;;;;;13.00;12.30;;;20.90;99.90;;;;;;5099154;28;21004;-67
2023/08/12 05:42:15;;;;;;;12.17;11.67;;;20.70;99.90;;;;;;5090608;28;20518;-67
2023/08/12 05:44:42;;;;;;;11.53;10.93;;;20.80;99.90;;;;;;5105132;28;20492;-68
2023/08/12 05:47:09;;;;;;;10.70;10.30;;;20.70;99.90;;;;;;5107602;28;20468;-66
2023/08/12 05:49:36;;;;;;;9.10;8.77;;;20.70;99.90;;;;;;5093645;28;20531;-68
2023/08/12 05:52:04;;;;;;;10.77;10.23;;;20.70;99.90;;;;;;5097456;28;20477;-67
2023/08/12 05:54:31;;;;;;;11.97;11.40;;;20.60;99.90;;;;;;5094249;28;20462;-69
2023/08/12 05:56:59;;;;;;;8.93;8.53;;;20.60;99.90;;;;;;5096294;28;20457;-68
2023/08/12 05:59:27;;;;;;;8.37;8.07;;;20.60;99.90;;;;;;5098819;28;20478;-67
2023/08/12 06:01:55;;;;;;;7.90;7.60;;;20.60;99.90;;;;;;5091640;28;20959;-68
2023/08/12 06:04:22;;;;;;;8.23;7.93;;;20.50;99.90;;;;;;5092953;28;20958;-68
2023/08/12 06:06:49;;;;;;;8.93;8.63;;;20.60;99.90;;;;;;5105879;28;20536;-68
2023/08/12 06:09:16;;;;;;;8.37;7.97;;;20.50;99.90;;;;;;5095772;28;20971;-68
2023/08/12 06:11:43;;;;;;;8.07;7.73;;;20.50;99.90;;;;;;5094297;28;20478;-69
2023/08/12 06:14:11;;;;;;;8.37;8.07;;;20.50;99.90;;;;;;5095856;28;20469;-68
2023/08/12 06:16:38;;;;;;;9.03;8.63;;;20.40;99.90;;;;;;5101422;28;20478;-69
2023/08/12 06:19:05;;;;;;;8.00;7.70;;;20.50;99.90;;;;;;5102626;28;20469;-68
2023/08/12 06:21:33;;;;;;;6.67;6.47;;;20.40;99.90;;;;;;5103323;28;20856;-68
2023/08/12 06:24:00;;;;;;;7.40;7.10;;;20.40;99.90;;;;;;5106877;28;20465;-69
2023/08/12 06:26:27;;;;;;;7.10;6.90;;;20.30;99.90;;;;;;5094774;28;20462;-69
2023/08/12 06:28:55;;;;;;;7.73;7.33;;;20.40;99.90;;;;;;5094641;28;20746;-70
2023/08/12 06:31:24;;;;;;;7.80;7.50;;;20.40;99.90;;;;;;5094669;28;20895;-69
2023/08/12 06:33:51;;;;;;;7.37;7.17;;;20.40;99.90;;;;;;5104792;28;20489;-68
2023/08/12 06:36:17;;;;;;;7.40;7.20;;;20.40;99.90;;;;;;5092921;28;20462;-69
2023/08/12 06:38:45;;;;;;;7.67;7.47;;;20.40;99.90;;;;;;5090333;28;20472;-69
2023/08/12 06:41:11;;;;;;;8.57;8.27;;;20.50;99.90;;;;;;5092405;28;20488;-68
2023/08/12 06:43:38;;;;;;;8.40;8.10;;;20.50;99.90;;;;;;5099001;28;20488;-68
2023/08/12 06:46:05;;;;;;;7.60;7.40;;;20.40;99.90;;;;;;5102811;28;20462;-68
2023/08/12 06:48:33;;;;;;;8.40;8.10;;;20.40;99.90;;;;;;5103802;28;20459;-69
2023/08/12 06:51:06;;;;;;;7.37;7.17;;;20.50;99.90;;;;;;5091426;28;20539;-68
2023/08/12 06:53:33;;;;;;;8.07;7.77;;;20.70;99.90;;;;;;5093185;28;20844;-69
2023/08/12 06:56:00;;;;;;;7.50;7.30;;;20.80;99.90;;;;;;5101352;28;20985;-68
2023/08/12 06:58:27;;;;;;;6.90;6.70;;;20.90;99.90;;;;;;5097424;28;20832;-68
2023/08/12 07:00:53;;;;;;;8.30;7.87;;;21.10;99.90;;;;;;5105295;28;20457;-68
2023/08/12 07:03:21;;;;;;;7.30;7.10;;;21.20;99.90;;;;;;5105666;28;20467;-69
2023/08/12 07:05:50;;;;;;;7.30;7.00;;;21.30;99.90;;;;;;5102703;28;20464;-69
2023/08/12 07:08:17;;;;;;;6.10;5.90;;;21.30;99.90;;;;;;5095140;28;20454;-69
2023/08/12 07:10:44;;;;;;;7.23;6.93;;;21.40;99.90;;;;;;5092426;28;20488;-69
2023/08/12 07:13:11;;;;;;;7.10;6.80;;;21.40;99.90;;;;;;5096787;28;20469;-69
2023/08/12 07:15:38;;;;;;;6.00;5.80;;;21.50;99.90;;;;;;5108113;28;20487;-68
2023/08/12 07:18:05;;;;;;;5.20;5.10;;;21.50;99.90;;;;;;5088537;28;20957;-69
2023/08/12 07:20:32;;;;;;;5.63;5.33;;;21.50;99.90;;;;;;5094573;28;20464;-69
2023/08/12 07:23:01;;;;;;;7.03;6.33;;;21.30;99.90;;;;;;5100565;28;20544;-68
2023/08/12 07:25:28;;;;;;;5.50;5.20;;;21.30;99.90;;;;;;5101940;28;21326;-68
2023/08/12 07:27:55;;;;;;;5.20;5.00;;;21.30;99.90;;;;;;5100776;28;20453;-68
2023/08/12 07:30:22;;;;;;;4.73;4.63;;;21.10;99.90;;;;;;5089934;28;21341;-68
2023/08/12 07:32:48;;;;;;;4.70;4.50;;;21.10;99.90;;;;;;5105678;28;20461;-68
2023/08/12 07:35:15;;;;;;;4.00;3.90;;;21.20;99.90;;;;;;5100419;28;20453;-68
2023/08/12 07:37:42;;;;;;;4.40;4.30;;;21.10;99.90;;;;;;5103477;28;20575;-67
2023/08/12 07:40:12;;;;;;;4.90;4.80;;;21.10;99.90;;;;;;5088445;28;20462;-68
2023/08/12 07:42:39;;;;;;;5.00;4.90;;;21.20;99.90;;;;;;5097171;28;21019;-67
2023/08/12 07:45:07;;;;;;;5.10;5.00;;;21.30;99.90;;;;;;5100972;28;20461;-67
2023/08/12 07:47:34;;;;;;;5.10;5.00;;;21.30;99.90;;;;;;5097467;28;20457;-68
2023/08/12 07:50:02;;;;;;;4.90;4.80;;;21.30;99.90;;;;;;5091954;27;20496;-67
2023/08/12 07:52:28;;;;;;;4.80;4.60;;;21.40;99.90;;;;;;5093102;28;20908;-68
2023/08/12 07:54:55;;;;;;;4.20;4.10;;;21.40;99.90;;;;;;5101110;28;20585;-68
2023/08/12 07:57:24;;;;;;;4.50;4.40;;;21.50;99.90;;;;;;5098292;28;20458;-68
2023/08/12 07:59:50;;;;;;;4.73;4.63;;;21.60;99.90;;;;;;5101885;28;20560;-69
2023/08/12 08:02:17;;;;;;;4.40;4.30;;;21.90;99.90;;;;;;5094140;28;20469;-68
2023/08/12 08:04:48;;;;;;;4.67;4.50;;;21.90;99.90;;;;;;5086283;28;20466;-67
2023/08/12 08:07:18;;;;;;;4.50;4.40;;;22.20;99.90;;;;;;5098063;28;20457;-68
2023/08/12 08:09:46;;;;;;;3.97;3.87;;;22.30;99.90;;;;;;5092847;28;20465;-68
2023/08/12 08:12:13;;;;;;;4.20;4.10;;;22.40;99.90;;;;;;5094230;28;20482;-69
2023/08/12 08:14:43;;;;;;;4.03;3.90;;;22.50;99.90;;;;;;5099146;28;20485;-69
2023/08/12 08:17:10;;;;;;;3.70;3.60;;;22.50;99.90;;;;;;5098223;28;20875;-68
2023/08/12 08:19:37;;;;;;;3.60;3.50;;;22.60;99.90;;;;;;5092926;28;20446;-68
2023/08/12 08:22:05;;;;;;;5.20;5.00;;;22.60;99.90;;;;;;5091737;27;20469;-69
2023/08/12 08:24:31;;;;;;;3.90;3.80;;;22.60;99.90;;;;;;5107454;28;20818;-69
2023/08/12 08:26:59;;;;;;;3.93;3.83;;;22.50;99.90;;;;;;5089571;28;20473;-69
2023/08/12 08:29:26;;;;;;;5.13;5.00;;;22.50;99.90;;;;;;5092295;28;20982;-67
2023/08/12 08:31:54;;;;;;;5.87;5.67;;;22.40;99.90;;;;;;5099557;28;21183;-66
2023/08/12 08:34:22;;;;;;;5.50;5.30;;;22.20;99.90;;;;;;5089781;28;20458;-66
2023/08/12 08:36:48;;;;;;;5.27;5.07;;;22.00;99.90;;;;;;5091652;28;20496;-67
2023/08/12 08:39:16;;;;;;;5.93;5.73;;;21.80;99.90;;;;;;5092810;28;20458;-66
2023/08/12 08:41:44;;;;;;;4.50;4.30;;;21.70;99.90;;;;;;5096416;28;20492;-67
2023/08/12 08:44:14;;;;;;;3.90;3.80;;;21.70;99.90;;;;;;5097573;28;20476;-67
2023/08/12 08:46:42;;;;;;;3.80;3.70;;;21.70;99.90;;;;;;5095485;28;20872;-67
2023/08/12 08:49:12;;;;;;;3.50;3.40;;;21.70;99.90;;;;;;5092326;28;20464;-68
2023/08/12 08:51:40;;;;;;;3.60;3.50;;;21.90;99.90;;;;;;5098331;28;20493;-68
2023/08/12 08:54:07;;;;;;;3.77;3.67;;;22.00;99.90;;;;;;5093169;28;20547;-67
2023/08/12 08:56:34;;;;;;;2.80;2.70;;;22.00;99.90;;;;;;5095301;28;20462;-68
2023/08/12 08:59:02;;;;;;;2.83;2.73;;;22.10;99.90;;;;;;5101323;28;20485;-69
2023/08/12 09:01:30;;;;;;;3.33;3.23;;;22.30;99.90;;;;;;5096970;28;20749;-69
2023/08/12 09:03:58;;;;;;;3.53;3.33;;;22.30;99.90;;;;;;5108890;28;20515;-68
2023/08/12 09:06:29;;;;;;;3.77;3.67;;;22.50;99.90;;;;;;5104800;28;20988;-68
2023/08/12 09:08:56;;;;;;;3.60;3.50;;;22.80;99.90;;;;;;5101385;28;20449;-68
2023/08/12 09:11:24;;;;;;;4.10;3.90;;;22.80;99.90;;;;;;5092412;28;20493;-69
2023/08/12 09:13:51;;;;;;;4.00;3.90;;;22.80;99.90;;;;;;5097908;28;21002;-70
2023/08/12 09:16:18;;;;;;;3.40;3.30;;;22.90;99.90;;;;;;5093708;28;20470;-67
2023/08/12 09:18:48;;;;;;;3.97;3.77;;;23.00;99.90;;;;;;5096988;28;20480;-68
2023/08/12 09:21:17;;;;;;;5.13;4.93;;;23.00;99.90;;;;;;5095801;28;20473;-67
2023/08/12 09:23:47;;;;;;;4.37;4.27;;;23.00;99.90;;;;;;5089658;28;20552;-68
2023/08/12 09:26:17;;;;;;;4.90;4.80;;;23.00;99.90;;;;;;5101737;28;20458;-67
2023/08/12 09:28:45;;;;;;;4.87;4.47;;;23.00;99.90;;;;;;5090034;28;20462;-68
2023/08/12 09:31:24;;;;;;;4.53;4.40;;;23.10;99.90;;;;;;5100256;28;20492;-67
2023/08/12 09:33:52;;;;;;;5.03;4.83;;;23.30;99.90;;;;;;5088887;28;20553;-67
2023/08/12 09:36:19;;;;;;;5.17;5.07;;;23.70;99.90;;;;;;5093471;28;20554;-68
2023/08/12 09:38:48;;;;;;;9.40;6.43;;;24.00;99.90;;;;;;5097869;28;20977;-68
2023/08/12 09:41:16;;;;;;;7.70;7.40;;;23.90;99.90;;;;;;5093428;28;20468;-68
2023/08/12 09:43:44;;;;;;;7.40;7.20;;;24.10;99.90;;;;;;5089781;28;20887;-68
2023/08/12 09:46:15;;;;;;;7.93;7.63;;;24.20;99.90;;;;;;5097758;28;20465;-68
2023/08/12 09:48:43;;;;;;;8.10;7.80;;;24.30;99.90;;;;;;5099516;28;20465;-67
2023/08/12 09:51:10;;;;;;;8.40;8.10;;;24.40;99.90;;;;;;5091552;28;21292;-68
2023/08/12 09:53:37;;;;;;;8.30;8.00;;;24.30;99.90;;;;;;5095818;28;20459;-67
2023/08/12 09:56:08;;;;;;;9.53;8.93;;;24.30;99.90;;;;;;5091108;28;20462;-67
2023/08/12 09:58:36;;;;;;;8.20;7.90;;;24.40;99.90;;;;;;5096902;28;20479;-68
2023/08/12 10:01:04;;;;;;;9.37;8.97;;;24.40;99.90;;;;;;5098368;28;20552;-68
2023/08/12 10:03:34;;;;;;;9.03;8.73;;;24.60;99.90;;;;;;5102751;28;20453;-69
2023/08/12 10:06:04;;;;;;;8.97;8.67;;;24.80;99.90;;;;;;5097626;28;20522;-68
2023/08/12 10:08:33;;;;;;;7.97;7.67;;;24.70;99.90;;;;;;5093468;28;20884;-68
2023/08/12 10:11:00;;;;;;;10.20;9.80;;;24.90;99.90;;;;;;5098872;28;20481;-67
2023/08/12 10:13:28;;;;;;;11.03;10.63;;;24.50;99.90;;;;;;5098298;28;20457;-67
2023/08/12 10:15:56;;;;;;;12.20;11.70;;;23.90;99.90;;;;;;5085844;28;20473;-68
2023/08/12 10:18:24;;;;;;;10.30;9.80;;;23.10;99.90;;;;;;5095171;28;20753;-68
2023/08/12 10:20:52;;;;;;;8.00;7.70;;;22.50;99.90;;;;;;5090117;28;21103;-68
2023/08/12 10:23:20;;;;;;;6.80;6.60;;;22.40;99.90;;;;;;5091178;28;20489;-69
2023/08/12 10:25:50;;;;;;;5.43;5.30;;;22.40;99.90;;;;;;5090825;28;20466;-68
2023/08/12 10:28:20;;;;;;;4.97;4.87;;;22.40;99.90;;;;;;5090962;28;20446;-69
2023/08/12 10:30:49;;;;;;;4.73;4.63;;;22.30;99.90;;;;;;5087263;28;20484;-70
2023/08/12 10:33:18;;;;;;;4.83;4.63;;;22.10;99.90;;;;;;5092161;28;20825;-70
2023/08/12 10:35:46;;;;;;;4.80;4.70;;;22.10;99.90;;;;;;5093381;28;20477;-70
2023/08/12 10:38:17;;;;;;;4.60;4.50;;;22.10;99.90;;;;;;5097047;28;20474;-69
2023/08/12 10:40:44;;;;;;;4.43;4.33;;;22.00;99.90;;;;;;5092341;28;20466;-68
2023/08/12 10:43:12;;;;;;;3.90;3.70;;;22.00;99.90;;;;;;5092183;28;20548;-68
2023/08/12 10:45:44;;;;;;;3.80;3.53;;;22.00;99.90;;;;;;5094231;28;20893;-69
2023/08/12 10:48:19;;;;;;;3.50;3.40;;;22.00;99.90;;;;;;5090993;28;20450;-68
2023/08/12 10:50:47;;;;;;;3.53;3.43;;;22.10;99.90;;;;;;5100797;28;20463;-69
2023/08/12 10:53:29;;;;;;;2.63;2.53;;;21.90;99.90;;;;;;5093073;28;20450;-68
2023/08/12 10:55:57;;;;;;;2.50;2.40;;;22.00;99.90;;;;;;5092318;28;20472;-68
2023/08/12 10:58:31;;;;;;;2.10;2.00;;;22.10;99.90;;;;;;5093028;27;21000;-68
2023/08/12 11:00:58;;;;;;;2.20;2.10;;;22.20;99.90;;;;;;5094861;28;20954;-68
2023/08/12 11:03:32;;;;;;;3.27;3.17;;;22.30;99.90;;;;;;5097714;28;20548;-68
2023/08/12 11:06:00;;;;;;;2.40;2.30;;;22.50;99.90;;;;;;5101281;28;20457;-69
2023/08/12 11:08:29;;;;;;;2.60;2.50;;;22.90;99.90;;;;;;5097089;28;20464;-69
2023/08/12 11:10:57;;;;;;;3.07;2.97;;;23.30;99.90;;;;;;5101654;28;20473;-69
2023/08/12 11:13:27;;;;;;;3.03;2.93;;;23.70;99.90;;;;;;5094514;28;20460;-69
2023/08/12 11:16:07;;;;;;;4.40;4.30;;;24.30;99.90;;;;;;5100488;28;20472;-67
2023/08/12 11:18:44;;;;;;;5.80;5.60;;;24.90;99.90;;;;;;5092672;28;20462;-70
2023/08/12 11:21:13;;;;;;;7.07;6.87;;;25.30;99.90;;;;;;5093424;28;21377;-69
2023/08/12 11:23:41;;;;;;;8.20;7.77;;;25.40;99.90;;;;;;5091810;28;20465;-68
2023/08/12 11:26:09;;;;;;;7.17;6.97;;;24.90;99.90;;;;;;5095463;28;20456;-68
2023/08/12 11:28:39;;;;;;;6.90;6.70;;;24.30;99.90;;;;;;5093012;28;20466;-69
2023/08/12 11:31:07;;;;;;;5.97;5.77;;;23.90;99.90;;;;;;5097752;28;20848;-70
2023/08/12 11:33:37;;;;;;;4.70;4.60;;;23.60;99.90;;;;;;5091365;28;21003;-70
2023/08/12 11:36:06;;;;;;;5.10;5.00;;;23.80;99.90;;;;;;5095427;28;20550;-69
2023/08/12 11:38:33;;;;;;;4.77;4.67;;;23.80;99.90;;;;;;5088692;28;20481;-70
2023/08/12 11:41:02;;;;;;;4.70;4.60;;;23.90;99.90;;;;;;5089957;27;20457;-69
2023/08/12 11:43:30;;;;;;;4.10;4.00;;;23.70;99.90;;;;;;5095621;28;20458;-68
2023/08/12 11:45:57;;;;;;;4.00;3.90;;;23.70;99.90;;;;;;5102943;28;20975;-66
2023/08/12 11:48:24;;;;;;;5.00;4.90;;;24.20;99.90;;;;;;5102463;28;20500;-69
2023/08/12 11:50:55;;;;;;;6.23;5.93;;;24.50;99.90;;;;;;5092088;28;20497;-69
2023/08/12 11:53:23;;;;;;;8.33;8.03;;;25.70;99.90;;;;;;5095650;28;20845;-69
2023/08/12 11:55:50;;;;;;;11.90;11.30;;;26.90;99.90;;;;;;5094651;28;20905;-69
2023/08/12 11:58:18;;;;;;;11.40;11.00;;;27.10;99.90;;;;;;5093066;28;20490;-69
2023/08/12 12:00:47;;;;;;;12.67;12.10;;;26.70;99.90;;;;;;5094283;28;20934;-68
2023/08/12 12:03:14;;;;;;;14.30;13.60;;;25.50;99.90;;;;;;5099561;28;20449;-68
2023/08/12 12:05:50;;;;;;;12.17;11.63;;;23.80;99.90;;;;;;5084947;28;20473;-71
2023/08/12 12:08:20;;;;;;;9.43;9.13;;;22.20;99.90;;;;;;5097356;28;20852;-71
2023/08/12 12:10:51;;;;;;;7.57;7.33;;;21.60;99.90;;;;;;5096900;28;20481;-71
2023/08/12 12:13:18;;;;;;;7.90;7.60;;;21.20;99.90;;;;;;5098670;28;20575;-69
2023/08/12 12:15:45;;;;;;;8.20;7.90;;;21.10;99.90;;;;;;5098974;28;20844;-71
2023/08/12 12:18:13;;;;;;;7.87;7.67;;;21.10;99.90;;;;;;5102275;28;20826;-70
2023/08/12 12:20:56;;;;;;;7.50;7.30;;;21.20;99.90;;;;;;5087200;28;20466;-71
2023/08/12 12:23:27;;;;;;;5.80;5.63;;;21.10;99.90;;;;;;5095493;28;20479;-72
2023/08/12 12:26:05;;;;;;;6.90;6.60;;;21.10;99.90;;;;;;5098072;28;20463;-71
2023/08/12 12:28:32;;;;;;;6.80;6.60;;;21.00;99.90;;;;;;5097017;28;20461;-70
2023/08/12 12:31:02;;;;;;;7.50;7.20;;;21.00;99.90;;;;;;5091956;28;20766;-69
2023/08/12 12:33:29;;;;;;;6.07;5.87;;;20.80;99.90;;;;;;5093672;28;20455;-70
2023/08/12 12:35:56;;;;;;;5.73;5.53;;;20.80;99.90;;;;;;5094199;28;20465;-69
2023/08/12 12:38:23;;;;;;;6.00;5.80;;;20.90;99.90;;;;;;5095110;28;20972;-69
2023/08/12 12:40:50;;;;;;;5.50;5.40;;;21.00;99.90;;;;;;5089375;28;20465;-68
2023/08/12 12:43:19;;;;;;;10.57;6.50;;;21.10;99.90;;;;;;5099456;28;20462;-71
2023/08/12 12:45:46;;;;;;;6.17;5.97;;;21.20;99.90;;;;;;5090415;28;20473;-67
2023/08/12 12:48:13;;;;;;;5.50;5.40;;;21.30;99.90;;;;;;5087321;28;20876;-69